sensor_id;sensor_type;location;lat;lon;timestamp;P1;durP1;ratioP1;P2;durP2;ratioP2
836;SDS011;400;53.550;9.932;2023-05-07T00:00:27;11.40;;;10.40;;
836;SDS011;400;53.550;9.932;2023-05-07T00:02:55;11.80;;;10.70;;
836;SDS011;400;53.550;9.932;2023-05-07T00:05:23;10.73;;;9.83;;
836;SDS011;400;53.550;9.932;2023-05-07T00:07:54;10.63;;;9.63;;
836;SDS011;400;53.550;9.932;2023-05-07T00:10:21;11.73;;;10.73;;
836;SDS011;400;53.550;9.932;2023-05-07T00:12:48;11.80;;;10.73;;
836;SDS011;400;53.550;9.932;2023-05-07T00:15:18;11.27;;;10.17;;
836;SDS011;400;53.550;9.932;2023-05-07T00:17:45;11.87;;;10.80;;
836;SDS011;400;53.550;9.932;2023-05-07T00:20:15;12.10;;;10.80;;
836;SDS011;400;53.550;9.932;2023-05-07T00:22:46;12.50;;;11.23;;
836;SDS011;400;53.550;9.932;2023-05-07T00:25:14;10.67;;;9.67;;
836;SDS011;400;53.550;9.932;2023-05-07T00:27:41;10.87;;;9.87;;
836;SDS011;400;53.550;9.932;2023-05-07T00:30:08;9.40;;;8.50;;
836;SDS011;400;53.550;9.932;2023-05-07T00:32:36;8.47;;;7.67;;
836;SDS011;400;53.550;9.932;2023-05-07T00:35:03;12.77;;;8.77;;
836;SDS011;400;53.550;9.932;2023-05-07T00:37:31;9.87;;;8.97;;
836;SDS011;400;53.550;9.932;2023-05-07T00:40:00;8.67;;;7.90;;
836;SDS011;400;53.550;9.932;2023-05-07T00:42:30;8.27;;;7.53;;
836;SDS011;400;53.550;9.932;2023-05-07T00:44:57;9.33;;;8.50;;
836;SDS011;400;53.550;9.932;2023-05-07T00:47:25;10.17;;;9.30;;
836;SDS011;400;53.550;9.932;2023-05-07T00:49:52;9.90;;;8.90;;
836;SDS011;400;53.550;9.932;2023-05-07T00:52:19;9.40;;;8.50;;
836;SDS011;400;53.550;9.932;2023-05-07T00:54:50;10.33;;;9.33;;
836;SDS011;400;53.550;9.932;2023-05-07T00:57:17;10.00;;;9.00;;
836;SDS011;400;53.550;9.932;2023-05-07T00:59:45;10.03;;;9.13;;
836;SDS011;400;53.550;9.932;2023-05-07T01:02:12;8.10;;;7.43;;
836;SDS011;400;53.550;9.932;2023-05-07T01:04:39;8.70;;;8.00;;
836;SDS011;400;53.550;9.932;2023-05-07T01:07:06;8.75;;;7.63;;
836;SDS011;400;53.550;9.932;2023-05-07T01:09:33;7.33;;;6.80;;
836;SDS011;400;53.550;9.932;2023-05-07T01:12:01;8.17;;;7.47;;
836;SDS011;400;53.550;9.932;2023-05-07T01:14:30;8.70;;;7.90;;
836;SDS011;400;53.550;9.932;2023-05-07T01:17:01;8.23;;;7.53;;
836;SDS011;400;53.550;9.932;2023-05-07T01:19:29;9.30;;;8.50;;
836;SDS011;400;53.550;9.932;2023-05-07T01:21:58;8.53;;;7.83;;
836;SDS011;400;53.550;9.932;2023-05-07T01:24:32;9.73;;;8.93;;
836;SDS011;400;53.550;9.932;2023-05-07T01:27:00;9.43;;;8.63;;
836;SDS011;400;53.550;9.932;2023-05-07T01:29:27;9.00;;;8.10;;
836;SDS011;400;53.550;9.932;2023-05-07T01:31:55;9.07;;;8.27;;
836;SDS011;400;53.550;9.932;2023-05-07T01:34:25;9.30;;;8.60;;
836;SDS011;400;53.550;9.932;2023-05-07T01:36:53;9.17;;;8.27;;
836;SDS011;400;53.550;9.932;2023-05-07T01:39:25;7.50;;;6.90;;
836;SDS011;400;53.550;9.932;2023-05-07T01:41:56;9.23;;;8.43;;
836;SDS011;400;53.550;9.932;2023-05-07T01:44:25;9.03;;;8.23;;
836;SDS011;400;53.550;9.932;2023-05-07T01:46:53;8.93;;;8.13;;
836;SDS011;400;53.550;9.932;2023-05-07T01:49:23;8.70;;;8.00;;
836;SDS011;400;53.550;9.932;2023-05-07T01:51:50;8.00;;;7.30;;
836;SDS011;400;53.550;9.932;2023-05-07T01:54:17;7.47;;;6.87;;
836;SDS011;400;53.550;9.932;2023-05-07T01:56:45;7.33;;;6.63;;
836;SDS011;400;53.550;9.932;2023-05-07T01:59:15;7.67;;;7.03;;
836;SDS011;400;53.550;9.932;2023-05-07T02:01:42;7.50;;;6.80;;
836;SDS011;400;53.550;9.932;2023-05-07T02:04:09;6.87;;;6.30;;
836;SDS011;400;53.550;9.932;2023-05-07T02:06:36;7.43;;;6.83;;
836;SDS011;400;53.550;9.932;2023-05-07T02:09:02;6.63;;;6.07;;
836;SDS011;400;53.550;9.932;2023-05-07T02:11:29;7.40;;;6.80;;
836;SDS011;400;53.550;9.932;2023-05-07T02:13:56;7.67;;;7.07;;
836;SDS011;400;53.550;9.932;2023-05-07T02:16:24;7.93;;;7.23;;
836;SDS011;400;53.550;9.932;2023-05-07T02:18:51;8.10;;;7.40;;
836;SDS011;400;53.550;9.932;2023-05-07T02:21:18;8.00;;;7.40;;
836;SDS011;400;53.550;9.932;2023-05-07T02:23:45;7.87;;;7.27;;
836;SDS011;400;53.550;9.932;2023-05-07T02:26:12;8.13;;;7.43;;
836;SDS011;400;53.550;9.932;2023-05-07T02:28:39;8.87;;;8.10;;
836;SDS011;400;53.550;9.932;2023-05-07T02:31:07;9.40;;;8.60;;
836;SDS011;400;53.550;9.932;2023-05-07T02:33:35;9.20;;;8.37;;
836;SDS011;400;53.550;9.932;2023-05-07T02:36:05;8.53;;;7.83;;
836;SDS011;400;53.550;9.932;2023-05-07T02:38:33;8.87;;;8.10;;
836;SDS011;400;53.550;9.932;2023-05-07T02:41:00;8.27;;;7.57;;
836;SDS011;400;53.550;9.932;2023-05-07T02:43:27;9.33;;;8.50;;
836;SDS011;400;53.550;9.932;2023-05-07T02:46:00;9.20;;;8.30;;
836;SDS011;400;53.550;9.932;2023-05-07T02:48:28;8.27;;;7.57;;
836;SDS011;400;53.550;9.932;2023-05-07T02:50:56;9.90;;;9.00;;
836;SDS011;400;53.550;9.932;2023-05-07T02:53:24;9.70;;;8.70;;
836;SDS011;400;53.550;9.932;2023-05-07T02:55:51;10.17;;;9.27;;
836;SDS011;400;53.550;9.932;2023-05-07T02:58:19;10.53;;;9.50;;
836;SDS011;400;53.550;9.932;2023-05-07T03:00:45;9.97;;;9.03;;
836;SDS011;400;53.550;9.932;2023-05-07T03:03:13;10.73;;;9.73;;
836;SDS011;400;53.550;9.932;2023-05-07T03:05:40;9.47;;;8.67;;
836;SDS011;400;53.550;9.932;2023-05-07T03:08:08;11.80;;;9.27;;
836;SDS011;400;53.550;9.932;2023-05-07T03:10:36;9.50;;;8.60;;
836;SDS011;400;53.550;9.932;2023-05-07T03:13:04;10.10;;;9.03;;
836;SDS011;400;53.550;9.932;2023-05-07T03:15:31;9.67;;;8.77;;
836;SDS011;400;53.550;9.932;2023-05-07T03:17:58;9.70;;;8.73;;
836;SDS011;400;53.550;9.932;2023-05-07T03:20:25;11.27;;;10.13;;
836;SDS011;400;53.550;9.932;2023-05-07T03:22:52;9.83;;;8.83;;
836;SDS011;400;53.550;9.932;2023-05-07T03:25:20;10.10;;;9.10;;
836;SDS011;400;53.550;9.932;2023-05-07T03:27:47;10.50;;;9.50;;
836;SDS011;400;53.550;9.932;2023-05-07T03:30:14;9.93;;;9.03;;
836;SDS011;400;53.550;9.932;2023-05-07T03:32:41;10.17;;;9.27;;
836;SDS011;400;53.550;9.932;2023-05-07T03:35:08;11.67;;;9.97;;
836;SDS011;400;53.550;9.932;2023-05-07T03:37:40;10.30;;;9.40;;
836;SDS011;400;53.550;9.932;2023-05-07T03:40:11;10.27;;;9.20;;
836;SDS011;400;53.550;9.932;2023-05-07T03:42:39;10.27;;;9.40;;
836;SDS011;400;53.550;9.932;2023-05-07T03:45:06;10.33;;;9.33;;
836;SDS011;400;53.550;9.932;2023-05-07T03:47:34;10.37;;;9.40;;
836;SDS011;400;53.550;9.932;2023-05-07T03:50:01;10.73;;;9.70;;
836;SDS011;400;53.550;9.932;2023-05-07T03:52:28;11.00;;;10.00;;
836;SDS011;400;53.550;9.932;2023-05-07T03:54:55;11.27;;;10.13;;
836;SDS011;400;53.550;9.932;2023-05-07T03:57:22;10.43;;;9.53;;
836;SDS011;400;53.550;9.932;2023-05-07T03:59:51;10.40;;;9.50;;
836;SDS011;400;53.550;9.932;2023-05-07T04:02:17;21.53;;;10.10;;
836;SDS011;400;53.550;9.932;2023-05-07T04:04:48;12.40;;;11.20;;
836;SDS011;400;53.550;9.932;2023-05-07T04:07:15;10.60;;;9.70;;
836;SDS011;400;53.550;9.932;2023-05-07T04:09:42;10.53;;;9.60;;
836;SDS011;400;53.550;9.932;2023-05-07T04:12:11;9.90;;;8.93;;
836;SDS011;400;53.550;9.932;2023-05-07T04:14:38;10.10;;;9.20;;
836;SDS011;400;53.550;9.932;2023-05-07T04:17:06;10.47;;;9.57;;
836;SDS011;400;53.550;9.932;2023-05-07T04:19:34;9.50;;;8.60;;
836;SDS011;400;53.550;9.932;2023-05-07T04:22:01;10.13;;;8.77;;
836;SDS011;400;53.550;9.932;2023-05-07T04:24:31;10.60;;;9.60;;
836;SDS011;400;53.550;9.932;2023-05-07T04:26:58;9.50;;;8.40;;
836;SDS011;400;53.550;9.932;2023-05-07T04:29:25;9.97;;;9.07;;
836;SDS011;400;53.550;9.932;2023-05-07T04:31:52;9.90;;;8.90;;
836;SDS011;400;53.550;9.932;2023-05-07T04:34:22;10.00;;;8.70;;
836;SDS011;400;53.550;9.932;2023-05-07T04:36:49;10.17;;;9.27;;
836;SDS011;400;53.550;9.932;2023-05-07T04:39:16;10.37;;;9.40;;
836;SDS011;400;53.550;9.932;2023-05-07T04:41:42;10.33;;;9.43;;
836;SDS011;400;53.550;9.932;2023-05-07T04:44:09;10.93;;;9.93;;
836;SDS011;400;53.550;9.932;2023-05-07T04:46:37;11.40;;;10.30;;
836;SDS011;400;53.550;9.932;2023-05-07T04:49:04;11.07;;;10.07;;
836;SDS011;400;53.550;9.932;2023-05-07T04:51:32;10.53;;;9.53;;
836;SDS011;400;53.550;9.932;2023-05-07T04:54:00;10.10;;;9.13;;
836;SDS011;400;53.550;9.932;2023-05-07T04:56:32;10.73;;;9.73;;
836;SDS011;400;53.550;9.932;2023-05-07T04:59:09;8.60;;;7.90;;
836;SDS011;400;53.550;9.932;2023-05-07T05:01:35;8.50;;;7.80;;
836;SDS011;400;53.550;9.932;2023-05-07T05:04:03;9.50;;;8.70;;
836;SDS011;400;53.550;9.932;2023-05-07T05:06:31;9.35;;;8.48;;
836;SDS011;400;53.550;9.932;2023-05-07T05:08:58;9.93;;;8.97;;
836;SDS011;400;53.550;9.932;2023-05-07T05:11:25;8.83;;;8.10;;
836;SDS011;400;53.550;9.932;2023-05-07T05:13:51;10.10;;;9.20;;
836;SDS011;400;53.550;9.932;2023-05-07T05:16:18;10.07;;;9.17;;
836;SDS011;400;53.550;9.932;2023-05-07T05:18:45;8.67;;;7.87;;
836;SDS011;400;53.550;9.932;2023-05-07T05:21:12;9.10;;;8.23;;
836;SDS011;400;53.550;9.932;2023-05-07T05:23:40;8.03;;;7.23;;
836;SDS011;400;53.550;9.932;2023-05-07T05:26:07;9.73;;;8.83;;
836;SDS011;400;53.550;9.932;2023-05-07T05:28:34;9.10;;;8.30;;
836;SDS011;400;53.550;9.932;2023-05-07T05:31:01;9.40;;;8.53;;
836;SDS011;400;53.550;9.932;2023-05-07T05:33:30;7.50;;;6.80;;
836;SDS011;400;53.550;9.932;2023-05-07T05:35:57;8.93;;;8.03;;
836;SDS011;400;53.550;9.932;2023-05-07T05:38:24;8.80;;;8.00;;
836;SDS011;400;53.550;9.932;2023-05-07T05:40:52;11.30;;;8.80;;
836;SDS011;400;53.550;9.932;2023-05-07T05:43:19;8.30;;;7.57;;
836;SDS011;400;53.550;9.932;2023-05-07T05:45:45;9.57;;;8.57;;
836;SDS011;400;53.550;9.932;2023-05-07T05:48:13;9.23;;;8.40;;
836;SDS011;400;53.550;9.932;2023-05-07T05:50:39;9.33;;;8.37;;
836;SDS011;400;53.550;9.932;2023-05-07T05:53:07;9.63;;;8.50;;
836;SDS011;400;53.550;9.932;2023-05-07T05:55:34;8.10;;;7.50;;
836;SDS011;400;53.550;9.932;2023-05-07T05:58:02;9.73;;;8.87;;
836;SDS011;400;53.550;9.932;2023-05-07T06:00:31;8.40;;;7.70;;
836;SDS011;400;53.550;9.932;2023-05-07T06:02:58;9.00;;;8.20;;
836;SDS011;400;53.550;9.932;2023-05-07T06:05:25;7.90;;;7.00;;
836;SDS011;400;53.550;9.932;2023-05-07T06:07:52;9.40;;;8.50;;
836;SDS011;400;53.550;9.932;2023-05-07T06:10:19;8.50;;;7.70;;
836;SDS011;400;53.550;9.932;2023-05-07T06:12:46;9.03;;;7.23;;
836;SDS011;400;53.550;9.932;2023-05-07T06:15:14;8.60;;;7.90;;
836;SDS011;400;53.550;9.932;2023-05-07T06:17:41;8.23;;;7.53;;
836;SDS011;400;53.550;9.932;2023-05-07T06:20:10;9.00;;;8.27;;
836;SDS011;400;53.550;9.932;2023-05-07T06:22:37;9.13;;;8.40;;
836;SDS011;400;53.550;9.932;2023-05-07T06:25:04;10.13;;;9.23;;
836;SDS011;400;53.550;9.932;2023-05-07T06:27:31;11.63;;;10.63;;
836;SDS011;400;53.550;9.932;2023-05-07T06:30:01;9.33;;;8.40;;
836;SDS011;400;53.550;9.932;2023-05-07T06:32:30;14.53;;;13.10;;
836;SDS011;400;53.550;9.932;2023-05-07T06:34:57;10.67;;;9.77;;
836;SDS011;400;53.550;9.932;2023-05-07T06:37:23;14.33;;;12.90;;
836;SDS011;400;53.550;9.932;2023-05-07T06:39:50;14.00;;;12.50;;
836;SDS011;400;53.550;9.932;2023-05-07T06:42:18;9.50;;;8.60;;
836;SDS011;400;53.550;9.932;2023-05-07T06:44:45;10.60;;;9.60;;
836;SDS011;400;53.550;9.932;2023-05-07T06:47:11;9.67;;;8.83;;
836;SDS011;400;53.550;9.932;2023-05-07T06:49:41;9.10;;;8.30;;
836;SDS011;400;53.550;9.932;2023-05-07T06:52:08;9.03;;;8.20;;
836;SDS011;400;53.550;9.932;2023-05-07T06:54:35;9.50;;;8.70;;
836;SDS011;400;53.550;9.932;2023-05-07T06:57:02;9.00;;;8.10;;
836;SDS011;400;53.550;9.932;2023-05-07T06:59:29;9.03;;;8.23;;
836;SDS011;400;53.550;9.932;2023-05-07T07:01:56;9.40;;;8.50;;
836;SDS011;400;53.550;9.932;2023-05-07T07:04:23;8.80;;;8.00;;
836;SDS011;400;53.550;9.932;2023-05-07T07:06:53;9.03;;;8.20;;
836;SDS011;400;53.550;9.932;2023-05-07T07:09:23;9.60;;;8.80;;
836;SDS011;400;53.550;9.932;2023-05-07T07:11:49;8.47;;;7.67;;
836;SDS011;400;53.550;9.932;2023-05-07T07:14:16;8.20;;;7.57;;
836;SDS011;400;53.550;9.932;2023-05-07T07:16:43;8.63;;;7.93;;
836;SDS011;400;53.550;9.932;2023-05-07T07:19:11;9.17;;;7.80;;
836;SDS011;400;53.550;9.932;2023-05-07T07:21:40;8.00;;;7.30;;
836;SDS011;400;53.550;9.932;2023-05-07T07:24:08;8.10;;;7.40;;
836;SDS011;400;53.550;9.932;2023-05-07T07:26:35;7.90;;;7.20;;
836;SDS011;400;53.550;9.932;2023-05-07T07:29:02;7.93;;;6.60;;
836;SDS011;400;53.550;9.932;2023-05-07T07:31:29;7.77;;;7.07;;
836;SDS011;400;53.550;9.932;2023-05-07T07:33:56;8.50;;;7.70;;
836;SDS011;400;53.550;9.932;2023-05-07T07:36:23;7.00;;;6.40;;
836;SDS011;400;53.550;9.932;2023-05-07T07:38:51;7.00;;;6.30;;
836;SDS011;400;53.550;9.932;2023-05-07T07:41:20;6.23;;;5.73;;
836;SDS011;400;53.550;9.932;2023-05-07T07:43:47;6.70;;;6.20;;
836;SDS011;400;53.550;9.932;2023-05-07T07:46:14;7.23;;;6.57;;
836;SDS011;400;53.550;9.932;2023-05-07T07:48:41;7.27;;;6.67;;
836;SDS011;400;53.550;9.932;2023-05-07T07:51:08;6.77;;;6.27;;
836;SDS011;400;53.550;9.932;2023-05-07T07:53:34;7.60;;;6.90;;
836;SDS011;400;53.550;9.932;2023-05-07T07:56:02;7.40;;;6.80;;
836;SDS011;400;53.550;9.932;2023-05-07T07:58:30;7.70;;;6.63;;
836;SDS011;400;53.550;9.932;2023-05-07T08:00:57;7.40;;;6.80;;
836;SDS011;400;53.550;9.932;2023-05-07T08:03:24;6.43;;;5.93;;
836;SDS011;400;53.550;9.932;2023-05-07T08:05:52;7.40;;;6.70;;
836;SDS011;400;53.550;9.932;2023-05-07T08:08:19;7.30;;;6.60;;
836;SDS011;400;53.550;9.932;2023-05-07T08:10:46;6.13;;;5.53;;
836;SDS011;400;53.550;9.932;2023-05-07T08:13:15;5.93;;;5.43;;
836;SDS011;400;53.550;9.932;2023-05-07T08:15:45;7.23;;;6.67;;
836;SDS011;400;53.550;9.932;2023-05-07T08:18:12;6.50;;;6.00;;
836;SDS011;400;53.550;9.932;2023-05-07T08:20:40;6.00;;;5.60;;
836;SDS011;400;53.550;9.932;2023-05-07T08:23:07;7.43;;;6.73;;
836;SDS011;400;53.550;9.932;2023-05-07T08:25:34;6.23;;;5.80;;
836;SDS011;400;53.550;9.932;2023-05-07T08:28:02;6.50;;;6.00;;
836;SDS011;400;53.550;9.932;2023-05-07T08:30:31;7.07;;;6.40;;
836;SDS011;400;53.550;9.932;2023-05-07T08:33:03;6.00;;;5.50;;
836;SDS011;400;53.550;9.932;2023-05-07T08:35:31;6.47;;;5.93;;
836;SDS011;400;53.550;9.932;2023-05-07T08:37:59;6.80;;;6.30;;
836;SDS011;400;53.550;9.932;2023-05-07T08:40:26;7.77;;;7.20;;
836;SDS011;400;53.550;9.932;2023-05-07T08:42:53;10.70;;;9.70;;
836;SDS011;400;53.550;9.932;2023-05-07T08:45:21;8.40;;;7.60;;
836;SDS011;400;53.550;9.932;2023-05-07T08:47:50;5.37;;;4.97;;
836;SDS011;400;53.550;9.932;2023-05-07T08:50:22;6.37;;;5.77;;
836;SDS011;400;53.550;9.932;2023-05-07T08:52:51;6.20;;;5.77;;
836;SDS011;400;53.550;9.932;2023-05-07T08:55:22;6.70;;;6.10;;
836;SDS011;400;53.550;9.932;2023-05-07T08:57:54;5.47;;;5.07;;
836;SDS011;400;53.550;9.932;2023-05-07T09:00:21;6.50;;;5.90;;
836;SDS011;400;53.550;9.932;2023-05-07T09:02:48;5.20;;;4.90;;
836;SDS011;400;53.550;9.932;2023-05-07T09:05:15;7.10;;;6.43;;
836;SDS011;400;53.550;9.932;2023-05-07T09:07:44;5.97;;;5.57;;
836;SDS011;400;53.550;9.932;2023-05-07T09:10:20;7.93;;;7.33;;
836;SDS011;400;53.550;9.932;2023-05-07T09:12:47;6.20;;;5.80;;
836;SDS011;400;53.550;9.932;2023-05-07T09:15:14;7.50;;;7.00;;
836;SDS011;400;53.550;9.932;2023-05-07T09:17:43;7.50;;;6.90;;
836;SDS011;400;53.550;9.932;2023-05-07T09:20:10;8.10;;;7.23;;
836;SDS011;400;53.550;9.932;2023-05-07T09:22:37;6.87;;;6.37;;
836;SDS011;400;53.550;9.932;2023-05-07T09:25:06;7.00;;;6.50;;
836;SDS011;400;53.550;9.932;2023-05-07T09:27:34;7.97;;;7.33;;
836;SDS011;400;53.550;9.932;2023-05-07T09:30:10;9.07;;;8.37;;
836;SDS011;400;53.550;9.932;2023-05-07T09:32:37;11.53;;;10.07;;
836;SDS011;400;53.550;9.932;2023-05-07T09:35:04;8.40;;;7.60;;
836;SDS011;400;53.550;9.932;2023-05-07T09:37:32;6.97;;;6.37;;
836;SDS011;400;53.550;9.932;2023-05-07T09:39:59;6.63;;;6.13;;
836;SDS011;400;53.550;9.932;2023-05-07T09:42:29;6.43;;;6.00;;
836;SDS011;400;53.550;9.932;2023-05-07T09:44:56;7.07;;;6.47;;
836;SDS011;400;53.550;9.932;2023-05-07T09:47:23;5.63;;;5.23;;
836;SDS011;400;53.550;9.932;2023-05-07T09:49:52;6.13;;;5.50;;
836;SDS011;400;53.550;9.932;2023-05-07T09:52:22;6.57;;;5.97;;
836;SDS011;400;53.550;9.932;2023-05-07T09:54:54;6.57;;;6.10;;
836;SDS011;400;53.550;9.932;2023-05-07T09:57:24;6.50;;;6.00;;
836;SDS011;400;53.550;9.932;2023-05-07T09:59:55;6.77;;;6.10;;
836;SDS011;400;53.550;9.932;2023-05-07T10:02:25;6.33;;;5.77;;
836;SDS011;400;53.550;9.932;2023-05-07T10:04:55;5.93;;;5.50;;
836;SDS011;400;53.550;9.932;2023-05-07T10:07:23;6.80;;;5.70;;
836;SDS011;400;53.550;9.932;2023-05-07T10:09:51;7.03;;;6.53;;
836;SDS011;400;53.550;9.932;2023-05-07T10:12:18;6.13;;;5.63;;
836;SDS011;400;53.550;9.932;2023-05-07T10:14:46;6.43;;;6.03;;
836;SDS011;400;53.550;9.932;2023-05-07T10:17:16;14.70;;;13.30;;
836;SDS011;400;53.550;9.932;2023-05-07T10:19:44;19.50;;;17.47;;
836;SDS011;400;53.550;9.932;2023-05-07T10:22:11;15.83;;;14.37;;
836;SDS011;400;53.550;9.932;2023-05-07T10:24:41;17.70;;;16.27;;
836;SDS011;400;53.550;9.932;2023-05-07T10:27:11;15.27;;;14.17;;
836;SDS011;400;53.550;9.932;2023-05-07T10:29:43;14.43;;;13.13;;
836;SDS011;400;53.550;9.932;2023-05-07T10:32:30;12.20;;;11.10;;
836;SDS011;400;53.550;9.932;2023-05-07T10:35:06;6.63;;;6.00;;
836;SDS011;400;53.550;9.932;2023-05-07T10:37:42;13.27;;;12.07;;
836;SDS011;400;53.550;9.932;2023-05-07T10:40:14;10.23;;;9.43;;
836;SDS011;400;53.550;9.932;2023-05-07T10:45:40;7.90;;;7.30;;
836;SDS011;400;53.550;9.932;2023-05-07T10:48:13;6.17;;;5.67;;
836;SDS011;400;53.550;9.932;2023-05-07T10:50:43;7.23;;;6.67;;
836;SDS011;400;53.550;9.932;2023-05-07T10:53:20;7.73;;;6.50;;
836;SDS011;400;53.550;9.932;2023-05-07T10:55:51;6.10;;;5.60;;
836;SDS011;400;53.550;9.932;2023-05-07T10:58:44;6.50;;;5.90;;
836;SDS011;400;53.550;9.932;2023-05-07T11:01:11;5.90;;;5.40;;
836;SDS011;400;53.550;9.932;2023-05-07T11:06:45;6.00;;;5.60;;
836;SDS011;400;53.550;9.932;2023-05-07T11:09:57;5.23;;;4.83;;
836;SDS011;400;53.550;9.932;2023-05-07T11:18:07;5.93;;;5.43;;
836;SDS011;400;53.550;9.932;2023-05-07T11:20:52;5.40;;;5.00;;
836;SDS011;400;53.550;9.932;2023-05-07T11:26:43;7.07;;;5.90;;
836;SDS011;400;53.550;9.932;2023-05-07T11:29:14;5.97;;;5.47;;
836;SDS011;400;53.550;9.932;2023-05-07T11:31:48;4.90;;;4.60;;
836;SDS011;400;53.550;9.932;2023-05-07T11:34:24;5.13;;;4.80;;
836;SDS011;400;53.550;9.932;2023-05-07T11:36:58;5.53;;;5.13;;
836;SDS011;400;53.550;9.932;2023-05-07T11:39:27;8.00;;;5.30;;
836;SDS011;400;53.550;9.932;2023-05-07T11:41:56;6.03;;;5.57;;
836;SDS011;400;53.550;9.932;2023-05-07T11:44:23;5.70;;;5.30;;
836;SDS011;400;53.550;9.932;2023-05-07T11:46:51;5.57;;;5.20;;
836;SDS011;400;53.550;9.932;2023-05-07T11:49:18;5.63;;;5.23;;
836;SDS011;400;53.550;9.932;2023-05-07T11:51:48;5.67;;;5.27;;
836;SDS011;400;53.550;9.932;2023-05-07T11:54:20;5.30;;;5.00;;
836;SDS011;400;53.550;9.932;2023-05-07T11:56:49;5.40;;;5.00;;
836;SDS011;400;53.550;9.932;2023-05-07T11:59:19;5.07;;;4.70;;
836;SDS011;400;53.550;9.932;2023-05-07T12:01:48;5.40;;;5.00;;
836;SDS011;400;53.550;9.932;2023-05-07T12:04:19;5.40;;;5.00;;
836;SDS011;400;53.550;9.932;2023-05-07T12:06:46;5.33;;;4.93;;
836;SDS011;400;53.550;9.932;2023-05-07T12:09:16;5.13;;;4.73;;
836;SDS011;400;53.550;9.932;2023-05-07T12:11:48;5.50;;;5.10;;
836;SDS011;400;53.550;9.932;2023-05-07T12:14:17;4.53;;;4.20;;
836;SDS011;400;53.550;9.932;2023-05-07T12:16:49;4.80;;;4.50;;
836;SDS011;400;53.550;9.932;2023-05-07T12:19:23;5.03;;;4.33;;
836;SDS011;400;53.550;9.932;2023-05-07T12:21:54;5.60;;;5.20;;
836;SDS011;400;53.550;9.932;2023-05-07T12:24:21;5.33;;;4.93;;
836;SDS011;400;53.550;9.932;2023-05-07T12:26:50;5.03;;;4.70;;
836;SDS011;400;53.550;9.932;2023-05-07T12:29:21;4.50;;;4.20;;
836;SDS011;400;53.550;9.932;2023-05-07T12:31:52;3.57;;;3.37;;
836;SDS011;400;53.550;9.932;2023-05-07T12:34:22;4.00;;;3.80;;
836;SDS011;400;53.550;9.932;2023-05-07T12:36:49;4.10;;;3.80;;
836;SDS011;400;53.550;9.932;2023-05-07T12:39:16;3.73;;;3.53;;
836;SDS011;400;53.550;9.932;2023-05-07T12:41:56;3.70;;;3.50;;
836;SDS011;400;53.550;9.932;2023-05-07T12:44:24;5.60;;;5.13;;
836;SDS011;400;53.550;9.932;2023-05-07T12:46:55;3.60;;;3.40;;
836;SDS011;400;53.550;9.932;2023-05-07T12:49:22;3.80;;;3.60;;
836;SDS011;400;53.550;9.932;2023-05-07T12:51:50;3.83;;;3.63;;
836;SDS011;400;53.550;9.932;2023-05-07T12:54:27;4.07;;;3.77;;
836;SDS011;400;53.550;9.932;2023-05-07T12:57:01;3.70;;;3.50;;
836;SDS011;400;53.550;9.932;2023-05-07T12:59:31;4.90;;;4.50;;
836;SDS011;400;53.550;9.932;2023-05-07T13:01:59;3.97;;;3.77;;
836;SDS011;400;53.550;9.932;2023-05-07T13:04:28;4.13;;;3.83;;
836;SDS011;400;53.550;9.932;2023-05-07T13:06:55;4.13;;;2.90;;
836;SDS011;400;53.550;9.932;2023-05-07T13:09:23;3.53;;;3.30;;
836;SDS011;400;53.550;9.932;2023-05-07T13:11:49;3.77;;;3.47;;
836;SDS011;400;53.550;9.932;2023-05-07T13:14:18;4.33;;;3.93;;
836;SDS011;400;53.550;9.932;2023-05-07T13:16:48;3.50;;;3.30;;
836;SDS011;400;53.550;9.932;2023-05-07T13:19:15;3.43;;;3.13;;
836;SDS011;400;53.550;9.932;2023-05-07T13:21:42;3.70;;;3.50;;
836;SDS011;400;53.550;9.932;2023-05-07T13:24:09;4.20;;;3.90;;
836;SDS011;400;53.550;9.932;2023-05-07T13:26:36;4.43;;;4.10;;
836;SDS011;400;53.550;9.932;2023-05-07T13:29:04;3.80;;;3.37;;
836;SDS011;400;53.550;9.932;2023-05-07T13:31:37;3.23;;;2.90;;
836;SDS011;400;53.550;9.932;2023-05-07T13:34:10;2.93;;;2.83;;
836;SDS011;400;53.550;9.932;2023-05-07T13:36:40;2.70;;;2.60;;
836;SDS011;400;53.550;9.932;2023-05-07T13:39:10;3.40;;;3.17;;
836;SDS011;400;53.550;9.932;2023-05-07T13:41:42;3.17;;;2.93;;
836;SDS011;400;53.550;9.932;2023-05-07T13:44:13;3.27;;;3.07;;
836;SDS011;400;53.550;9.932;2023-05-07T13:46:45;3.13;;;2.93;;
836;SDS011;400;53.550;9.932;2023-05-07T13:49:13;3.50;;;3.30;;
836;SDS011;400;53.550;9.932;2023-05-07T13:51:39;3.97;;;3.67;;
836;SDS011;400;53.550;9.932;2023-05-07T13:54:06;7.40;;;4.23;;
836;SDS011;400;53.550;9.932;2023-05-07T13:56:34;4.53;;;4.13;;
836;SDS011;400;53.550;9.932;2023-05-07T13:59:12;5.60;;;5.20;;
836;SDS011;400;53.550;9.932;2023-05-07T14:01:41;8.73;;;7.93;;
836;SDS011;400;53.550;9.932;2023-05-07T14:04:08;6.40;;;5.93;;
836;SDS011;400;53.550;9.932;2023-05-07T14:06:37;7.00;;;6.50;;
836;SDS011;400;53.550;9.932;2023-05-07T14:09:07;7.73;;;7.13;;
836;SDS011;400;53.550;9.932;2023-05-07T14:11:37;8.33;;;7.57;;
836;SDS011;400;53.550;9.932;2023-05-07T14:14:04;3.43;;;3.23;;
836;SDS011;400;53.550;9.932;2023-05-07T14:16:31;8.53;;;7.87;;
836;SDS011;400;53.550;9.932;2023-05-07T14:19:01;6.10;;;5.60;;
836;SDS011;400;53.550;9.932;2023-05-07T14:21:30;5.67;;;5.00;;
836;SDS011;400;53.550;9.932;2023-05-07T14:23:58;3.70;;;2.70;;
836;SDS011;400;53.550;9.932;2023-05-07T14:26:26;4.10;;;3.33;;
836;SDS011;400;53.550;9.932;2023-05-07T14:28:54;3.53;;;3.27;;
836;SDS011;400;53.550;9.932;2023-05-07T14:31:26;3.27;;;3.07;;
836;SDS011;400;53.550;9.932;2023-05-07T14:34:01;3.10;;;2.90;;
836;SDS011;400;53.550;9.932;2023-05-07T14:36:28;4.10;;;3.17;;
836;SDS011;400;53.550;9.932;2023-05-07T14:38:56;3.17;;;2.97;;
836;SDS011;400;53.550;9.932;2023-05-07T14:41:24;3.33;;;3.13;;
836;SDS011;400;53.550;9.932;2023-05-07T14:43:53;3.83;;;3.13;;
836;SDS011;400;53.550;9.932;2023-05-07T14:46:25;2.93;;;2.73;;
836;SDS011;400;53.550;9.932;2023-05-07T14:48:56;4.20;;;3.47;;
836;SDS011;400;53.550;9.932;2023-05-07T14:51:29;3.83;;;2.70;;
836;SDS011;400;53.550;9.932;2023-05-07T14:53:58;3.20;;;3.10;;
836;SDS011;400;53.550;9.932;2023-05-07T14:56:29;2.80;;;2.70;;
836;SDS011;400;53.550;9.932;2023-05-07T14:58:56;2.70;;;2.60;;
836;SDS011;400;53.550;9.932;2023-05-07T15:01:25;2.63;;;2.47;;
836;SDS011;400;53.550;9.932;2023-05-07T15:03:56;3.17;;;2.97;;
836;SDS011;400;53.550;9.932;2023-05-07T15:06:28;3.07;;;2.87;;
836;SDS011;400;53.550;9.932;2023-05-07T15:08:59;2.87;;;2.57;;
836;SDS011;400;53.550;9.932;2023-05-07T15:11:26;3.03;;;2.83;;
836;SDS011;400;53.550;9.932;2023-05-07T15:13:54;2.73;;;2.53;;
836;SDS011;400;53.550;9.932;2023-05-07T15:16:26;2.63;;;2.53;;
836;SDS011;400;53.550;9.932;2023-05-07T15:18:54;2.67;;;2.50;;
836;SDS011;400;53.550;9.932;2023-05-07T15:21:21;3.07;;;2.87;;
836;SDS011;400;53.550;9.932;2023-05-07T15:23:50;2.67;;;2.43;;
836;SDS011;400;53.550;9.932;2023-05-07T15:26:16;2.63;;;2.43;;
836;SDS011;400;53.550;9.932;2023-05-07T15:28:43;3.60;;;3.30;;
836;SDS011;400;53.550;9.932;2023-05-07T15:31:11;2.63;;;2.43;;
836;SDS011;400;53.550;9.932;2023-05-07T15:33:44;2.90;;;2.70;;
836;SDS011;400;53.550;9.932;2023-05-07T15:36:14;3.27;;;3.07;;
836;SDS011;400;53.550;9.932;2023-05-07T15:38:42;2.80;;;2.60;;
836;SDS011;400;53.550;9.932;2023-05-07T15:41:12;2.67;;;2.47;;
836;SDS011;400;53.550;9.932;2023-05-07T15:43:45;2.90;;;2.70;;
836;SDS011;400;53.550;9.932;2023-05-07T15:46:17;3.03;;;2.80;;
836;SDS011;400;53.550;9.932;2023-05-07T15:48:48;2.57;;;2.47;;
836;SDS011;400;53.550;9.932;2023-05-07T15:51:15;4.13;;;3.03;;
836;SDS011;400;53.550;9.932;2023-05-07T15:53:42;2.90;;;2.70;;
836;SDS011;400;53.550;9.932;2023-05-07T15:56:10;2.40;;;2.20;;
836;SDS011;400;53.550;9.932;2023-05-07T15:58:39;3.57;;;3.27;;
836;SDS011;400;53.550;9.932;2023-05-07T16:01:06;3.20;;;2.90;;
836;SDS011;400;53.550;9.932;2023-05-07T16:03:33;2.60;;;2.40;;
836;SDS011;400;53.550;9.932;2023-05-07T16:06:01;3.50;;;3.30;;